createdAt,value
2023-01-29T00:01:42.793Z,101825.19
2023-01-29T00:04:09.331Z,101827.03
2023-01-29T00:06:36.162Z,101818.28
2023-01-29T00:09:02.933Z,101812.38
2023-01-29T00:11:31.391Z,101807.28
2023-01-29T00:13:58.231Z,101803.19
2023-01-29T00:16:25.097Z,101809.47
2023-01-29T00:18:51.725Z,101799.94
2023-01-29T00:21:20.665Z,101799.28
2023-01-29T00:23:47.194Z,101797.84
2023-01-29T00:26:14.609Z,101798.38
2023-01-29T00:28:41.383Z,101807.31
2023-01-29T00:31:09.102Z,101794.47
2023-01-29T00:33:36.071Z,101797.31
2023-01-29T00:36:07.925Z,101795.22
2023-01-29T00:38:34.900Z,101795.22
2023-01-29T00:41:31.861Z,101792.75
2023-01-29T00:44:17.717Z,101788.69
2023-01-29T00:46:44.751Z,101789.50
2023-01-29T00:49:11.648Z,101774.84
2023-01-29T00:51:39.355Z,101779.94
2023-01-29T00:54:06.934Z,101781.78
2023-01-29T00:56:36.150Z,101780.13
2023-01-29T00:59:04.266Z,101780.31
2023-01-29T01:01:49.236Z,101772.41
2023-01-29T01:04:15.859Z,101770.78
2023-01-29T01:06:42.993Z,101767.94
2023-01-29T01:09:29.250Z,101755.13
2023-01-29T01:11:55.864Z,101759.78
2023-01-29T01:14:22.413Z,101757.50
2023-01-29T01:16:49.670Z,101743.66
2023-01-29T01:19:16.359Z,101744.06
2023-01-29T01:21:48.312Z,101739.59
2023-01-29T01:24:15.456Z,101731.22
2023-01-29T01:26:42.031Z,101724.69
2023-01-29T01:29:09.193Z,101720.13
2023-01-29T01:31:35.817Z,101715.06
2023-01-29T01:34:02.457Z,101713.78
2023-01-29T01:36:28.954Z,101698.69
2023-01-29T01:38:55.554Z,101698.97
2023-01-29T01:41:24.057Z,101708.06
2023-01-29T01:43:57.516Z,101707.16
2023-01-29T01:46:25.948Z,101713.31
2023-01-29T01:48:57.230Z,101701.69
2023-01-29T01:51:28.926Z,101697.78
2023-01-29T01:54:03.639Z,101694.97
2023-01-29T01:56:38.288Z,101695.97
2023-01-29T01:59:09.752Z,101694.16
2023-01-29T02:01:38.319Z,101694.16
2023-01-29T02:04:27.367Z,101687.25
2023-01-29T02:07:13.833Z,101692.06
2023-01-29T02:09:49.550Z,101696.97
2023-01-29T02:12:17.158Z,101693.00
2023-01-29T02:14:44.689Z,101700.88
2023-01-29T02:17:15.866Z,101702.88
2023-01-29T02:20:00.783Z,101693.00
2023-01-29T02:22:46.142Z,101686.09
2023-01-29T02:25:18.321Z,101680.00
2023-01-29T02:28:03.447Z,101679.16
2023-01-29T02:30:40.703Z,101673.09
2023-01-29T02:33:36.896Z,101666.19
2023-01-29T02:36:24.517Z,101663.34
2023-01-29T02:39:14.723Z,101658.94
2023-01-29T02:41:54.412Z,101662.53
2023-01-29T02:44:26.609Z,101652.56
2023-01-29T02:47:33.327Z,101655.19
2023-01-29T02:50:06.317Z,101654.66
2023-01-29T02:52:37.233Z,101651.94
2023-01-29T02:55:18.326Z,101659.84
2023-01-29T02:57:48.866Z,101657.38
2023-01-29T03:00:30.164Z,101661.66
2023-01-29T03:03:12.266Z,101657.22
2023-01-29T03:05:51.169Z,101653.75
2023-01-29T03:08:37.128Z,101646.84
2023-01-29T03:11:07.001Z,101651.13
2023-01-29T03:13:37.007Z,101649.31
2023-01-29T03:16:16.479Z,101631.13
2023-01-29T03:18:50.902Z,101632.03
2023-01-29T03:21:52.938Z,101631.66
2023-01-29T03:24:53.434Z,101643.84
2023-01-29T03:27:41.841Z,101636.75
2023-01-29T03:30:31.500Z,101632.31
2023-01-29T03:33:02.716Z,101638.38
2023-01-29T03:35:37.463Z,101631.50
2023-01-29T03:38:10.127Z,101630.47
2023-01-29T03:40:57.880Z,101635.75
2023-01-29T03:43:32.270Z,101634.94
2023-01-29T03:46:08.918Z,101629.88
2023-01-29T03:48:45.930Z,101630.69
2023-01-29T03:53:58.899Z,101617.50
2023-01-29T03:56:33.196Z,101610.56
2023-01-29T03:59:15.262Z,101610.56
2023-01-29T04:02:00.261Z,101602.88
2023-01-29T04:04:38.747Z,101596.97
2023-01-29T04:07:18.589Z,101589.09
2023-01-29T04:09:58.570Z,101587.44
2023-01-29T04:12:31.099Z,101595.72
2023-01-29T04:15:01.578Z,101577.28
2023-01-29T04:17:34.755Z,101574.81
2023-01-29T04:20:02.772Z,101577.63
2023-01-29T04:22:35.383Z,101576.03
2023-01-29T04:25:15.968Z,101570.19
2023-01-29T04:28:10.549Z,101573.03
2023-01-29T04:31:00.504Z,101568.94
2023-01-29T04:33:48.878Z,101563.41
2023-01-29T04:36:35.389Z,101570.50
2023-01-29T04:39:25.862Z,101564.22
2023-01-29T04:42:07.392Z,101550.50
2023-01-29T04:45:02.810Z,101548.06
2023-01-29T04:47:41.232Z,101543.53
2023-01-29T04:50:10.510Z,101543.34
2023-01-29T04:53:04.618Z,101549.97
2023-01-29T04:55:46.487Z,101533.53
2023-01-29T04:58:17.581Z,101530.56
2023-01-29T05:00:48.967Z,101530.72
2023-01-29T05:03:16.461Z,101518.56
2023-01-29T05:05:46.766Z,101521.03
2023-01-29T05:08:16.987Z,101511.47
2023-01-29T05:10:44.913Z,101507.03
2023-01-29T05:13:15.012Z,101504.59
2023-01-29T05:15:58.071Z,101499.06
2023-01-29T05:18:24.724Z,101507.69
2023-01-29T05:20:52.467Z,101507.50
2023-01-29T05:23:21.731Z,101492.63
2023-01-29T05:25:50.614Z,101500.59
2023-01-29T05:28:17.559Z,101498.59
2023-01-29T05:30:52.809Z,101495.31
2023-01-29T05:33:20.844Z,101497.84
2023-01-29T05:35:47.822Z,101503.00
2023-01-29T05:38:15.354Z,101498.28
2023-01-29T05:40:42.252Z,101488.69
2023-01-29T05:43:18.265Z,101487.13
2023-01-29T05:46:01.283Z,101490.75
2023-01-29T05:48:29.608Z,101486.22
2023-01-29T05:51:03.945Z,101490.66
2023-01-29T05:53:31.251Z,101484.47
2023-01-29T05:56:01.550Z,101481.22
2023-01-29T05:58:28.199Z,101478.41
2023-01-29T06:00:54.736Z,101480.03
2023-01-29T06:03:21.230Z,101472.13
2023-01-29T06:05:47.791Z,101463.09
2023-01-29T06:08:14.404Z,101458.66
2023-01-29T06:10:40.903Z,101465.19
2023-01-29T06:13:08.047Z,101462.53
2023-01-29T06:15:34.632Z,101459.28
2023-01-29T06:18:01.177Z,101452.22
2023-01-29T06:20:27.736Z,101455.00
2023-01-29T06:22:54.260Z,101447.66
2023-01-29T06:25:20.785Z,101462.63
2023-01-29T06:27:50.916Z,101452.47
2023-01-29T06:30:18.248Z,101456.44
2023-01-29T06:32:45.047Z,101449.75
2023-01-29T06:35:11.840Z,101445.41
2023-01-29T06:37:38.407Z,101452.34
2023-01-29T06:40:05.310Z,101445.97
2023-01-29T06:42:31.780Z,101445.53
2023-01-29T06:44:58.307Z,101451.63
2023-01-29T06:47:25.252Z,101445.25
2023-01-29T06:49:52.170Z,101438.56
2023-01-29T06:52:18.956Z,101444.16
2023-01-29T06:54:45.480Z,101430.44
2023-01-29T06:57:11.984Z,101430.63
2023-01-29T06:59:38.557Z,101423.56
2023-01-29T07:02:05.091Z,101427.19
2023-01-29T07:04:31.729Z,101424.91
2023-01-29T07:07:00.000Z,101432.78
2023-01-29T07:09:26.539Z,101430.78
2023-01-29T07:11:53.024Z,101437.22
2023-01-29T07:14:19.603Z,101431.50
2023-01-29T07:16:46.077Z,101420.00
2023-01-29T07:19:12.789Z,101420.34
2023-01-29T07:21:39.323Z,101420.34
2023-01-29T07:24:06.142Z,101415.09
2023-01-29T07:26:32.681Z,101423.50
2023-01-29T07:28:59.218Z,101416.44
2023-01-29T07:31:25.833Z,101418.16
2023-01-29T07:33:52.405Z,101420.25
2023-01-29T07:36:19.588Z,101420.06
2023-01-29T07:38:49.539Z,101416.44
2023-01-29T07:41:16.102Z,101417.25
2023-01-29T07:43:42.644Z,101419.72
2023-01-29T07:46:09.251Z,101419.53
2023-01-29T07:48:35.933Z,101426.44
2023-01-29T07:51:02.659Z,101422.34
2023-01-29T07:53:29.780Z,101425.31
2023-01-29T07:55:56.531Z,101423.16
2023-01-29T07:58:23.226Z,101423.16
2023-01-29T08:00:49.820Z,101421.88
2023-01-29T08:03:18.921Z,101409.22
2023-01-29T08:05:46.182Z,101422.81
2023-01-29T08:08:13.140Z,101409.69
2023-01-29T08:10:40.094Z,101404.25
2023-01-29T08:13:08.099Z,101397.81
2023-01-29T08:15:37.197Z,101400.44
2023-01-29T08:18:05.419Z,101407.13
2023-01-29T08:20:32.075Z,101403.69
2023-01-29T08:23:01.056Z,101401.25
2023-01-29T08:25:28.032Z,101399.09
2023-01-29T08:27:56.742Z,101392.66
2023-01-29T08:30:29.311Z,101394.13
2023-01-29T08:32:55.883Z,101388.31
2023-01-29T08:35:22.506Z,101390.78
2023-01-29T08:37:58.330Z,101386.16
2023-01-29T08:40:25.609Z,101384.47
2023-01-29T08:42:52.095Z,101384.91
2023-01-29T08:45:18.913Z,101377.66
2023-01-29T08:47:47.261Z,101388.63
2023-01-29T08:50:14.033Z,101382.41
2023-01-29T08:52:40.682Z,101382.03
2023-01-29T08:55:07.659Z,101383.47
2023-01-29T08:57:34.274Z,101378.88
2023-01-29T09:00:01.077Z,101385.56
2023-01-29T09:02:27.661Z,101377.13
2023-01-29T09:04:54.487Z,101371.31
2023-01-29T09:07:21.870Z,101364.09
2023-01-29T09:09:48.403Z,101377.69
2023-01-29T09:12:14.960Z,101371.28
2023-01-29T09:14:41.552Z,101362.19
2023-01-29T09:17:08.077Z,101377.41
2023-01-29T09:19:34.649Z,101377.25
2023-01-29T09:22:01.144Z,101377.69
2023-01-29T09:24:27.654Z,101383.56
2023-01-29T09:26:54.250Z,101367.44
2023-01-29T09:29:20.798Z,101375.94
2023-01-29T09:31:47.478Z,101363.25
2023-01-29T09:34:14.243Z,101366.31
2023-01-29T09:36:40.842Z,101365.97
2023-01-29T09:39:07.531Z,101363.59
2023-01-29T09:41:43.568Z,101343.00
2023-01-29T09:44:29.223Z,101345.06
2023-01-29T09:46:56.867Z,101337.47
2023-01-29T09:49:29.222Z,101338.56
2023-01-29T09:52:04.260Z,101332.72
2023-01-29T09:54:35.154Z,101322.66
2023-01-29T09:57:01.802Z,101316.81
2023-01-29T09:59:31.257Z,101319.91
2023-01-29T10:02:39.107Z,101311.44
2023-01-29T10:05:18.060Z,101309.25
2023-01-29T10:08:06.366Z,101310.69
2023-01-29T10:10:44.508Z,101299.81
2023-01-29T10:13:43.282Z,101306.47
2023-01-29T10:16:42.247Z,101304.28
2023-01-29T10:19:47.727Z,101299.47
2023-01-29T10:22:43.447Z,101310.25
2023-01-29T10:25:18.478Z,101308.25
2023-01-29T10:27:54.108Z,101294.50
2023-01-29T10:30:45.959Z,101295.59
2023-01-29T10:33:18.819Z,101300.06
2023-01-29T10:35:58.090Z,101324.81
2023-01-29T10:38:59.122Z,101324.06
2023-01-29T10:41:42.719Z,101306.50
2023-01-29T10:44:37.539Z,101295.38
2023-01-29T10:47:55.375Z,101328.91
2023-01-29T10:50:39.240Z,101303.78
2023-01-29T10:53:43.110Z,101315.38
2023-01-29T10:56:24.329Z,101296.72
2023-01-29T10:59:01.631Z,101271.81
2023-01-29T11:01:28.241Z,101273.03
2023-01-29T11:04:01.731Z,101270.03
2023-01-29T11:06:28.206Z,101264.16
2023-01-29T11:09:16.719Z,101267.22
2023-01-29T11:11:54.107Z,101262.19
2023-01-29T11:14:51.823Z,101256.94
2023-01-29T11:17:20.622Z,101241.16
2023-01-29T11:19:49.986Z,101244.81
2023-01-29T11:22:20.151Z,101243.84
2023-01-29T11:25:06.792Z,101246.31
2023-01-29T11:27:35.685Z,101242.69
2023-01-29T11:30:02.798Z,101239.03
2023-01-29T11:32:33.648Z,101232.97
2023-01-29T11:35:04.744Z,101230.56
2023-01-29T11:37:39.320Z,101242.94
2023-01-29T11:40:24.046Z,101239.69
2023-01-29T11:42:53.699Z,101234.81
2023-01-29T11:45:20.182Z,101230.97
2023-01-29T11:47:55.943Z,101220.84
2023-01-29T11:50:27.895Z,101215.16
2023-01-29T11:52:54.991Z,101217.59
2023-01-29T11:55:50.235Z,101213.31
2023-01-29T11:58:22.203Z,101212.91
2023-01-29T12:00:52.558Z,101202.97
2023-01-29T12:03:32.010Z,101206.63
2023-01-29T12:06:08.166Z,101199.34
2023-01-29T12:08:39.946Z,101204.00
2023-01-29T12:11:18.932Z,101197.28
2023-01-29T12:13:54.387Z,101211.34
2023-01-29T12:16:31.170Z,101204.22
2023-01-29T12:19:39.432Z,101203.00
2023-01-29T12:22:17.430Z,101202.16
2023-01-29T12:24:46.666Z,101195.25
2023-01-29T12:27:19.277Z,101200.50
2023-01-29T12:30:11.736Z,101197.66
2023-01-29T12:32:50.145Z,101194.78
2023-01-29T12:35:24.942Z,101191.50
2023-01-29T12:38:01.032Z,101180.91
2023-01-29T12:40:33.768Z,101176.81
2023-01-29T12:43:09.747Z,101165.63
2023-01-29T12:45:37.632Z,101152.78
2023-01-29T12:48:13.956Z,101157.44
2023-01-29T12:50:41.105Z,101149.09
2023-01-29T12:53:26.698Z,101146.19
2023-01-29T12:55:58.857Z,101149.41
2023-01-29T12:58:37.224Z,101140.22
2023-01-29T13:01:16.516Z,101139.50
2023-01-29T13:04:08.847Z,101141.09
2023-01-29T13:06:50.741Z,101131.28
2023-01-29T13:09:25.890Z,101126.59
2023-01-29T13:12:11.431Z,101115.13
2023-01-29T13:14:58.698Z,101110.22
2023-01-29T13:17:40.591Z,101108.34
2023-01-29T13:20:21.261Z,101098.53
2023-01-29T13:22:50.381Z,101094.88
2023-01-29T13:25:19.548Z,101094.44
2023-01-29T13:27:47.911Z,101084.88
2023-01-29T13:30:26.163Z,101085.69
2023-01-29T13:32:54.905Z,101071.84
2023-01-29T13:35:23.702Z,101071.25
2023-01-29T13:37:53.767Z,101068.22
2023-01-29T13:40:30.113Z,101068.47
2023-01-29T13:43:00.209Z,101064.16
2023-01-29T13:45:44.329Z,101055.66
2023-01-29T13:48:27.832Z,101053.19
2023-01-29T13:51:01.410Z,101041.22
2023-01-29T13:53:32.800Z,101032.47
2023-01-29T13:56:33.062Z,101049.16
2023-01-29T13:59:02.998Z,101035.53
2023-01-29T14:01:48.049Z,101031.28
2023-01-29T14:04:25.504Z,101033.31
2023-01-29T14:06:55.081Z,101029.66
2023-01-29T14:09:53.706Z,101021.13
2023-01-29T14:12:22.955Z,101015.03
2023-01-29T14:14:49.647Z,101006.28
2023-01-29T14:17:19.009Z,101003.41
2023-01-29T14:20:03.320Z,101005.00
2023-01-29T14:22:33.193Z,101009.06
2023-01-29T14:25:04.315Z,101003.78
2023-01-29T14:27:32.088Z,101003.34
2023-01-29T14:30:06.949Z,101001.09
2023-01-29T14:32:33.940Z,101003.06
2023-01-29T14:35:04.827Z,100994.91
2023-01-29T14:37:35.766Z,100982.47
2023-01-29T14:40:11.426Z,100973.28
2023-01-29T14:42:44.183Z,100975.69
2023-01-29T14:45:13.695Z,100968.56
2023-01-29T14:47:40.200Z,100963.88
2023-01-29T14:50:32.919Z,100954.06
2023-01-29T14:53:03.662Z,100954.88
2023-01-29T14:55:35.668Z,100939.59
2023-01-29T14:58:04.069Z,100938.56
2023-01-29T15:00:40.867Z,100935.91
2023-01-29T15:03:19.468Z,100925.31
2023-01-29T15:05:49.317Z,100932.22
2023-01-29T15:08:29.990Z,100921.88
2023-01-29T15:11:18.131Z,100923.47
2023-01-29T15:13:52.323Z,100918.63
2023-01-29T15:17:04.234Z,100922.06
2023-01-29T15:19:44.574Z,100919.66
2023-01-29T15:22:19.333Z,100914.78
2023-01-29T15:24:47.995Z,100910.53
2023-01-29T15:27:23.323Z,100920.56
2023-01-29T15:29:58.737Z,100912.81
2023-01-29T15:32:34.193Z,100917.53
2023-01-29T15:35:01.931Z,100911.44
2023-01-29T15:37:33.908Z,100902.09
2023-01-29T15:40:01.632Z,100896.19
2023-01-29T15:42:29.825Z,100881.34
2023-01-29T15:44:56.617Z,100878.91
2023-01-29T15:47:28.452Z,100880.97
2023-01-29T15:49:57.295Z,100884.88
2023-01-29T15:52:28.882Z,100883.25
2023-01-29T15:55:01.519Z,100876.34
2023-01-29T15:57:41.034Z,100862.72
2023-01-29T16:00:22.255Z,100875.97
2023-01-29T16:02:48.853Z,100873.56
2023-01-29T16:05:18.918Z,100877.44
2023-01-29T16:07:46.501Z,100878.47
2023-01-29T16:10:28.384Z,100874.22
2023-01-29T16:12:57.473Z,100868.31
2023-01-29T16:15:32.235Z,100854.50
2023-01-29T16:18:00.572Z,100845.75
2023-01-29T16:20:31.790Z,100832.16
2023-01-29T16:22:59.567Z,100834.81
2023-01-29T16:25:26.619Z,100816.50
2023-01-29T16:27:53.274Z,100807.97
2023-01-29T16:30:19.990Z,100797.59
2023-01-29T16:32:46.645Z,100796.00
2023-01-29T16:35:17.251Z,100800.69
2023-01-29T16:37:48.996Z,100804.34
2023-01-29T16:40:26.586Z,100810.69
2023-01-29T16:43:28.396Z,100800.53
2023-01-29T16:46:19.609Z,100800.78
2023-01-29T16:48:47.943Z,100813.41
2023-01-29T16:51:20.831Z,100819.72
2023-01-29T16:53:59.939Z,100833.19
2023-01-29T16:56:30.273Z,100856.38
2023-01-29T16:58:57.787Z,100861.09
2023-01-29T17:01:26.641Z,100832.81
2023-01-29T17:04:02.791Z,100839.34
2023-01-29T17:06:31.648Z,100850.94
2023-01-29T17:08:58.791Z,100845.66
2023-01-29T17:11:34.678Z,100841.19
2023-01-29T17:14:01.629Z,100836.91
2023-01-29T17:16:34.086Z,100863.81
2023-01-29T17:19:01.248Z,100870.94
2023-01-29T17:21:29.942Z,100860.34
2023-01-29T17:23:56.465Z,100858.50
2023-01-29T17:26:24.691Z,100842.03
2023-01-29T17:28:51.650Z,100839.19
2023-01-29T17:31:18.359Z,100849.97
2023-01-29T17:33:45.951Z,100846.75
2023-01-29T17:36:15.879Z,100856.53
2023-01-29T17:38:42.725Z,100844.75
2023-01-29T17:41:16.213Z,100847.22
2023-01-29T17:43:44.403Z,100826.31
2023-01-29T17:46:16.695Z,100842.59
2023-01-29T17:48:44.029Z,100839.56
2023-01-29T17:51:17.008Z,100836.34
2023-01-29T17:53:46.422Z,100854.50
2023-01-29T17:56:23.155Z,100848.81
2023-01-29T17:58:49.724Z,100831.78
2023-01-29T18:01:16.312Z,100837.06
2023-01-29T18:03:42.958Z,100862.69
2023-01-29T18:06:14.541Z,100873.91
2023-01-29T18:08:41.143Z,100863.34
2023-01-29T18:11:12.590Z,100878.41
2023-01-29T18:13:41.778Z,100873.09
2023-01-29T18:16:08.316Z,100852.78
2023-01-29T18:18:35.285Z,100851.13
2023-01-29T18:21:01.940Z,100843.44
2023-01-29T18:23:31.105Z,100831.44
2023-01-29T18:25:57.825Z,100827.84
2023-01-29T18:28:25.027Z,100825.03
2023-01-29T18:30:51.741Z,100812.03
2023-01-29T18:33:18.501Z,100796.81
2023-01-29T18:35:45.586Z,100786.47
2023-01-29T18:38:12.194Z,100772.66
2023-01-29T18:40:38.713Z,100765.38
2023-01-29T18:43:05.243Z,100763.41
2023-01-29T18:45:31.859Z,100772.56
2023-01-29T18:47:58.528Z,100780.69
2023-01-29T18:50:26.459Z,100777.09
2023-01-29T18:52:54.250Z,100760.63
2023-01-29T18:55:21.542Z,100756.41
2023-01-29T18:58:25.118Z,100765.31
2023-01-29T19:00:38.515Z,100765.81
2023-01-29T19:03:05.251Z,100746.53
2023-01-29T19:05:33.961Z,100739.78
2023-01-29T19:08:01.904Z,100732.91
2023-01-29T19:10:28.480Z,100736.19
2023-01-29T19:12:55.191Z,100727.06
2023-01-29T19:15:22.797Z,100729.34
2023-01-29T19:17:52.486Z,100737.47
2023-01-29T19:20:19.308Z,100728.34
2023-01-29T19:22:46.173Z,100715.59
2023-01-29T19:25:12.879Z,100727.78
2023-01-29T19:27:39.507Z,100748.97
2023-01-29T19:30:06.890Z,100745.34
2023-01-29T19:32:33.497Z,100744.94
2023-01-29T19:35:00.220Z,100735.03
2023-01-29T19:37:28.337Z,100735.69
2023-01-29T19:39:54.818Z,100750.91
2023-01-29T19:42:21.468Z,100743.19
2023-01-29T19:44:48.197Z,100747.28
2023-01-29T19:47:15.039Z,100756.81
2023-01-29T19:49:41.753Z,100755.41
2023-01-29T19:52:15.016Z,100752.97
2023-01-29T19:54:48.838Z,100748.91
2023-01-29T19:57:15.391Z,100781.34
2023-01-29T19:59:45.611Z,100774.06
2023-01-29T20:02:12.456Z,100768.38
2023-01-29T20:04:39.099Z,100756.56
2023-01-29T20:07:05.690Z,100749.66
2023-01-29T20:09:32.275Z,100757.72
2023-01-29T20:11:58.793Z,100736.63
2023-01-29T20:14:25.575Z,100728.69
2023-01-29T20:16:52.186Z,100725.03
2023-01-29T20:19:20.609Z,100718.31
2023-01-29T20:21:48.886Z,100709.97
2023-01-29T20:24:15.511Z,100715.63
2023-01-29T20:26:42.172Z,100695.31
2023-01-29T20:29:10.011Z,100686.97
2023-01-29T20:31:36.521Z,100680.47
2023-01-29T20:34:03.106Z,100691.84
2023-01-29T20:36:29.615Z,100691.59
2023-01-29T20:38:56.294Z,100699.91
2023-01-29T20:41:22.995Z,100697.28
2023-01-29T20:43:50.947Z,100694.41
2023-01-29T20:46:18.755Z,100694.22
2023-01-29T20:48:45.378Z,100681.81
2023-01-29T20:51:17.739Z,100685.03
2023-01-29T20:53:45.744Z,100690.31
2023-01-29T20:56:13.791Z,100684.84
2023-01-29T20:58:43.627Z,100684.84
2023-01-29T21:01:12.309Z,100698.84
2023-01-29T21:03:39.920Z,100691.50
2023-01-29T21:06:08.647Z,100711.00
2023-01-29T21:08:35.986Z,100703.09
2023-01-29T21:11:03.932Z,100701.25
2023-01-29T21:13:30.946Z,100701.25
2023-01-29T21:15:57.823Z,100702.91
2023-01-29T21:18:26.329Z,100701.25
2023-01-29T21:20:54.470Z,100700.25
2023-01-29T21:23:21.745Z,100701.25
2023-01-29T21:25:48.295Z,100699.41
2023-01-29T21:28:15.827Z,100694.75
2023-01-29T21:30:42.621Z,100686.22
2023-01-29T21:33:09.194Z,100687.06
2023-01-29T21:35:37.748Z,100692.34
2023-01-29T21:38:04.921Z,100691.50
2023-01-29T21:40:31.807Z,100686.59
2023-01-29T21:43:13.813Z,100687.84
2023-01-29T21:45:41.074Z,100677.28
2023-01-29T21:48:09.091Z,100677.06
2023-01-29T21:50:35.811Z,100669.16
2023-01-29T21:53:03.338Z,100678.91
2023-01-29T21:55:30.208Z,100678.09
2023-01-29T21:57:57.199Z,100681.53
2023-01-29T22:00:23.892Z,100680.75
2023-01-29T22:02:51.230Z,100677.88
2023-01-29T22:05:19.980Z,100687.63
2023-01-29T22:07:48.219Z,100674.44
2023-01-29T22:10:16.204Z,100677.06
2023-01-29T22:12:44.560Z,100665.47
2023-01-29T22:15:11.921Z,100666.28
2023-01-29T22:17:41.219Z,100662.81
2023-01-29T22:20:12.786Z,100661.00
2023-01-29T22:22:39.523Z,100662.63
2023-01-29T22:25:06.429Z,100667.91
2023-01-29T22:27:33.872Z,100672.38
2023-01-29T22:30:00.480Z,100674.81
2023-01-29T22:32:27.089Z,100674.81
2023-01-29T22:34:53.754Z,100672.16
2023-01-29T22:37:20.269Z,100667.91
2023-01-29T22:39:47.065Z,100674.00
2023-01-29T22:42:13.634Z,100676.41
2023-01-29T22:44:40.190Z,100669.28
2023-01-29T22:47:06.729Z,100676.41
2023-01-29T22:49:33.284Z,100678.06
2023-01-29T22:52:11.946Z,100674.38
2023-01-29T22:54:40.876Z,100670.75
2023-01-29T22:57:10.333Z,100677.63
2023-01-29T22:59:37.261Z,100675.78
2023-01-29T23:02:04.514Z,100674.56
2023-01-29T23:04:31.199Z,100663.78
2023-01-29T23:06:57.890Z,100669.66
2023-01-29T23:09:24.480Z,100695.25
2023-01-29T23:11:51.078Z,100695.03
2023-01-29T23:14:17.777Z,100698.28
2023-01-29T23:16:44.334Z,100705.16
2023-01-29T23:19:12.122Z,100716.53
2023-01-29T23:21:39.639Z,100732.41
2023-01-29T23:24:07.450Z,100737.47
2023-01-29T23:26:52.936Z,100745.41
2023-01-29T23:29:19.478Z,100731.59
2023-01-29T23:31:46.187Z,100735.25
2023-01-29T23:34:13.798Z,100739.50
2023-01-29T23:36:40.521Z,100746.63
2023-01-29T23:39:07.116Z,100749.28
2023-01-29T23:41:33.698Z,100737.28
2023-01-29T23:44:00.298Z,100752.09
2023-01-29T23:46:26.877Z,100737.09
2023-01-29T23:48:53.447Z,100745.03
2023-01-29T23:51:19.969Z,100748.66
2023-01-29T23:53:46.587Z,100748.88
2023-01-29T23:56:13.606Z,100746.47
2023-01-29T23:58:40.173Z,100756.81
